createdAt,value
2022-11-15T00:00:31.091Z,20.30
2022-11-15T00:03:26.641Z,20.30
2022-11-15T00:06:21.052Z,20.40
2022-11-15T00:09:12.429Z,20.30
2022-11-15T00:12:06.390Z,20.40
2022-11-15T00:14:54.964Z,20.40
2022-11-15T00:17:43.019Z,20.40
2022-11-15T00:20:32.004Z,20.40
2022-11-15T00:23:21.193Z,20.40
2022-11-15T00:26:12.788Z,20.40
2022-11-15T00:29:01.194Z,20.40
2022-11-15T00:31:49.351Z,20.40
2022-11-15T00:34:39.463Z,20.40
2022-11-15T00:37:28.299Z,20.40
2022-11-15T00:40:17.024Z,20.40
2022-11-15T00:43:05.457Z,20.40
2022-11-15T00:45:55.627Z,20.50
2022-11-15T00:48:44.601Z,20.40
2022-11-15T00:51:33.284Z,20.40
2022-11-15T00:54:21.543Z,20.40
2022-11-15T00:57:10.699Z,20.50
2022-11-15T01:00:02.785Z,20.50
2022-11-15T01:02:51.434Z,20.50
2022-11-15T01:05:43.087Z,20.50
2022-11-15T01:08:33.414Z,20.50
2022-11-15T01:11:22.430Z,20.50
2022-11-15T01:14:12.099Z,20.50
2022-11-15T01:17:00.786Z,20.50
2022-11-15T01:19:49.130Z,20.50
2022-11-15T01:22:37.884Z,20.50
2022-11-15T01:25:27.107Z,20.50
2022-11-15T01:28:15.731Z,20.50
2022-11-15T01:31:05.053Z,20.50
2022-11-15T01:33:53.984Z,20.50
2022-11-15T01:36:43.053Z,20.50
2022-11-15T01:39:32.034Z,20.60
2022-11-15T01:42:20.516Z,20.60
2022-11-15T01:45:12.799Z,20.60
2022-11-15T01:48:01.476Z,20.60
2022-11-15T01:50:49.733Z,20.60
2022-11-15T01:53:38.371Z,20.60
2022-11-15T01:56:29.261Z,20.60
2022-11-15T01:59:17.952Z,20.60
2022-11-15T02:02:06.532Z,20.70
2022-11-15T02:04:54.904Z,20.70
2022-11-15T02:07:44.900Z,20.80
2022-11-15T02:10:33.406Z,20.80
2022-11-15T02:13:22.351Z,20.90
2022-11-15T02:16:30.883Z,20.80
2022-11-15T02:19:35.946Z,20.90
2022-11-15T02:22:54.306Z,21.00
2022-11-15T02:25:54.668Z,21.00
2022-11-15T02:29:07.836Z,21.00
2022-11-15T02:32:34.048Z,21.00
2022-11-15T02:35:32.543Z,21.00
2022-11-15T02:38:46.200Z,21.10
2022-11-15T02:42:00.491Z,21.10
2022-11-15T02:44:48.769Z,21.20
2022-11-15T02:47:40.321Z,21.20
2022-11-15T02:50:30.201Z,21.30
2022-11-15T02:53:18.589Z,21.30
2022-11-15T02:56:07.204Z,21.30
2022-11-15T02:59:05.210Z,21.40
2022-11-15T03:02:05.922Z,21.40
2022-11-15T03:04:58.902Z,21.50
2022-11-15T03:08:02.497Z,21.40
2022-11-15T03:11:10.315Z,21.50
2022-11-15T03:13:58.138Z,21.50
2022-11-15T03:17:12.710Z,21.50
2022-11-15T03:20:03.097Z,21.50
2022-11-15T03:22:52.012Z,21.50
2022-11-15T03:25:53.327Z,21.60
2022-11-15T03:28:57.209Z,21.60
2022-11-15T03:31:51.675Z,21.70
2022-11-15T03:35:04.519Z,21.60
2022-11-15T03:38:11.117Z,21.60
2022-11-15T03:41:08.298Z,21.70
2022-11-15T03:44:22.214Z,21.70
2022-11-15T03:47:44.807Z,21.70
2022-11-15T03:50:33.057Z,21.70
2022-11-15T03:53:21.554Z,21.80
2022-11-15T03:56:10.034Z,21.80
2022-11-15T03:58:58.455Z,21.80
2022-11-15T04:01:46.848Z,21.80
2022-11-15T04:04:36.158Z,21.80
2022-11-15T04:07:25.376Z,21.90
2022-11-15T04:10:14.927Z,21.90
2022-11-15T04:13:05.122Z,21.90
2022-11-15T04:15:54.253Z,21.90
2022-11-15T04:18:42.533Z,21.90
2022-11-15T04:21:49.567Z,21.90
2022-11-15T04:24:37.723Z,21.90
2022-11-15T04:27:26.797Z,21.90
2022-11-15T04:30:15.423Z,22.00
2022-11-15T04:33:04.071Z,22.00
2022-11-15T04:36:10.946Z,22.00
2022-11-15T04:39:27.972Z,22.00
2022-11-15T04:42:17.178Z,22.00
2022-11-15T04:45:05.608Z,22.00
2022-11-15T04:47:54.279Z,22.00
2022-11-15T04:50:42.496Z,22.00
2022-11-15T04:53:31.142Z,22.10
2022-11-15T04:56:19.819Z,22.00
2022-11-15T04:59:08.573Z,22.00
2022-11-15T05:01:56.835Z,22.10
2022-11-15T05:04:46.257Z,22.00
2022-11-15T05:07:34.682Z,22.10
2022-11-15T05:10:23.433Z,22.00
2022-11-15T05:13:11.793Z,22.00
2022-11-15T05:16:00.829Z,22.00
2022-11-15T05:18:49.098Z,22.00
2022-11-15T05:21:38.338Z,22.00
2022-11-15T05:24:27.074Z,22.00
2022-11-15T05:27:15.324Z,22.00
2022-11-15T05:30:03.622Z,22.00
2022-11-15T05:32:51.780Z,22.00
2022-11-15T05:35:44.358Z,22.00
2022-11-15T05:38:33.004Z,22.00
2022-11-15T05:41:23.468Z,22.00
2022-11-15T05:44:14.069Z,22.00
2022-11-15T05:47:03.293Z,22.00
2022-11-15T05:49:53.129Z,22.00
2022-11-15T05:52:42.432Z,22.00
2022-11-15T05:55:30.600Z,22.00
2022-11-15T05:58:19.552Z,22.00
2022-11-15T06:01:07.946Z,22.00
2022-11-15T06:03:56.879Z,22.00
2022-11-15T06:06:45.845Z,22.00
2022-11-15T06:09:34.253Z,22.00
2022-11-15T06:12:22.664Z,22.00
2022-11-15T06:15:12.572Z,22.00
2022-11-15T06:18:01.221Z,22.00
2022-11-15T06:20:49.903Z,22.00
2022-11-15T06:23:38.967Z,22.00
2022-11-15T06:26:27.456Z,22.00
2022-11-15T06:29:16.008Z,22.00
2022-11-15T06:32:04.419Z,22.00
2022-11-15T06:34:53.622Z,22.00
2022-11-15T06:37:42.718Z,22.00
2022-11-15T06:40:30.831Z,22.00
2022-11-15T06:43:19.133Z,22.00
2022-11-15T06:46:09.661Z,22.00
2022-11-15T06:48:58.425Z,22.00
2022-11-15T06:51:47.173Z,21.90
2022-11-15T06:54:35.695Z,22.00
2022-11-15T06:57:24.004Z,22.00
2022-11-15T07:00:13.200Z,22.00
2022-11-15T07:03:05.051Z,22.00
2022-11-15T07:05:58.514Z,22.00
2022-11-15T07:08:50.834Z,22.00
2022-11-15T07:11:38.977Z,22.00
2022-11-15T07:14:27.632Z,22.00
2022-11-15T07:17:15.999Z,22.00
2022-11-15T07:20:05.840Z,22.00
2022-11-15T07:22:54.127Z,22.00
2022-11-15T07:25:42.755Z,22.00
2022-11-15T07:28:31.196Z,22.00
2022-11-15T07:31:19.596Z,22.00
2022-11-15T07:34:08.070Z,22.00
2022-11-15T07:36:56.872Z,21.90
2022-11-15T07:39:45.374Z,21.90
2022-11-15T07:42:54.866Z,21.90
2022-11-15T07:45:47.950Z,21.90
2022-11-15T07:48:43.890Z,21.90
2022-11-15T07:51:32.901Z,22.00
2022-11-15T07:54:21.418Z,22.00
2022-11-15T07:57:11.344Z,22.00
2022-11-15T07:59:59.804Z,21.90
2022-11-15T08:02:48.956Z,22.00
2022-11-15T08:05:41.238Z,22.00
2022-11-15T08:08:29.450Z,22.00
2022-11-15T08:11:17.690Z,22.00
2022-11-15T08:14:06.897Z,22.00
2022-11-15T08:16:56.773Z,22.00
2022-11-15T08:19:45.319Z,22.00
2022-11-15T08:22:34.364Z,22.00
2022-11-15T08:25:22.546Z,22.00
2022-11-15T08:28:11.910Z,22.00
2022-11-15T08:31:00.526Z,22.00
2022-11-15T08:33:48.831Z,22.00
2022-11-15T08:36:44.564Z,22.00
2022-11-15T08:39:34.428Z,22.00
2022-11-15T08:42:23.288Z,22.00
2022-11-15T08:45:13.102Z,22.00
2022-11-15T08:48:02.989Z,22.00
2022-11-15T08:50:51.599Z,22.00
2022-11-15T08:53:39.871Z,22.00
2022-11-15T08:56:28.402Z,22.00
2022-11-15T08:59:16.614Z,22.00
2022-11-15T09:02:05.503Z,22.00
2022-11-15T09:04:53.945Z,22.00
2022-11-15T09:07:42.963Z,22.00
2022-11-15T09:10:33.563Z,22.00
2022-11-15T09:13:21.837Z,22.00
2022-11-15T09:16:10.061Z,22.00
2022-11-15T09:18:58.275Z,22.00
2022-11-15T09:21:52.496Z,22.00
2022-11-15T09:24:41.444Z,22.00
2022-11-15T09:27:35.084Z,22.00
2022-11-15T09:30:24.472Z,22.00
2022-11-15T09:33:13.341Z,22.00
2022-11-15T09:36:07.070Z,21.90
2022-11-15T09:38:55.488Z,21.90
2022-11-15T09:42:20.773Z,21.90
2022-11-15T09:45:23.551Z,21.90
2022-11-15T09:48:12.132Z,21.90
2022-11-15T09:51:03.473Z,21.90
2022-11-15T09:56:50.920Z,21.80
2022-11-15T09:59:26.574Z,21.90
2022-11-15T10:02:00.078Z,21.80
2022-11-15T10:04:30.848Z,21.80
2022-11-15T10:07:23.352Z,21.80
2022-11-15T10:10:04.273Z,21.80
2022-11-15T10:12:34.546Z,21.80
2022-11-15T10:15:12.620Z,21.80
2022-11-15T10:17:47.632Z,21.80
2022-11-15T10:20:24.541Z,21.80
2022-11-15T10:22:58.979Z,21.80
2022-11-15T10:25:36.126Z,21.80
2022-11-15T10:28:28.235Z,21.70
2022-11-15T10:31:01.479Z,21.80
2022-11-15T10:33:38.756Z,21.80
2022-11-15T10:36:18.721Z,21.80
2022-11-15T10:38:51.936Z,21.70
2022-11-15T10:41:22.237Z,21.80
2022-11-15T10:44:12.433Z,21.70
2022-11-15T10:46:51.246Z,21.80
2022-11-15T10:49:23.050Z,21.80
2022-11-15T10:51:59.637Z,21.70
2022-11-15T10:54:51.430Z,21.70
2022-11-15T10:57:39.642Z,21.70
2022-11-15T11:00:31.157Z,21.70
2022-11-15T11:03:06.353Z,21.70
2022-11-15T11:05:42.543Z,21.70
2022-11-15T11:08:19.263Z,21.70
2022-11-15T11:11:04.019Z,21.70
2022-11-15T11:13:45.360Z,21.70
2022-11-15T11:16:27.847Z,21.70
2022-11-15T11:19:36.021Z,21.70
2022-11-15T11:22:30.877Z,21.70
2022-11-15T11:25:24.976Z,21.70
2022-11-15T11:28:04.230Z,21.70
2022-11-15T11:30:50.676Z,21.70
2022-11-15T11:33:34.300Z,21.60
2022-11-15T11:36:43.054Z,21.60
2022-11-15T11:39:24.355Z,21.70
2022-11-15T11:42:12.614Z,21.60
2022-11-15T11:45:00.777Z,21.60
2022-11-15T11:47:46.429Z,21.60
2022-11-15T11:50:28.745Z,21.60
2022-11-15T11:53:12.317Z,21.60
2022-11-15T11:55:50.834Z,21.60
2022-11-15T11:58:28.406Z,21.60
2022-11-15T12:01:34.385Z,21.60
2022-11-15T12:04:19.147Z,21.60
2022-11-15T12:07:02.693Z,21.60
2022-11-15T12:10:09.342Z,21.60
2022-11-15T12:13:03.617Z,21.60
2022-11-15T12:15:54.102Z,21.60
2022-11-15T12:18:30.458Z,21.60
2022-11-15T12:21:31.784Z,21.50
2022-11-15T12:24:07.143Z,21.60
2022-11-15T12:27:02.375Z,21.60
2022-11-15T12:29:42.892Z,21.50
2022-11-15T12:32:23.162Z,21.60
2022-11-15T12:34:59.317Z,21.60
2022-11-15T12:37:48.519Z,21.50
2022-11-15T12:40:34.968Z,21.50
2022-11-15T12:43:26.095Z,21.50
2022-11-15T12:45:59.345Z,21.50
2022-11-15T12:48:38.706Z,21.50
2022-11-15T12:51:14.701Z,21.50
2022-11-15T12:53:50.832Z,21.50
2022-11-15T12:56:23.442Z,21.50
2022-11-15T12:59:01.139Z,21.50
2022-11-15T13:01:43.205Z,21.50
2022-11-15T13:04:22.352Z,21.50
2022-11-15T13:07:01.881Z,21.50
2022-11-15T13:09:37.575Z,21.50
2022-11-15T13:12:17.128Z,21.50
2022-11-15T13:14:59.483Z,21.50
2022-11-15T13:17:53.799Z,21.50
2022-11-15T13:20:34.356Z,21.50
2022-11-15T13:23:18.544Z,21.50
2022-11-15T13:26:13.275Z,21.50
2022-11-15T13:28:53.298Z,21.50
2022-11-15T13:31:46.452Z,21.50
2022-11-15T13:34:51.999Z,21.50
2022-11-15T13:37:25.843Z,21.50
2022-11-15T13:39:58.860Z,21.50
2022-11-15T13:42:34.897Z,21.50
2022-11-15T13:45:12.568Z,21.50
2022-11-15T13:47:48.169Z,21.50
2022-11-15T13:50:18.378Z,21.50
2022-11-15T13:52:51.641Z,21.50
2022-11-15T13:55:26.050Z,21.50
2022-11-15T13:58:08.785Z,21.50
2022-11-15T14:00:43.889Z,21.50
2022-11-15T14:03:23.260Z,21.40
2022-11-15T14:06:12.266Z,21.40
2022-11-15T14:08:47.412Z,21.40
2022-11-15T14:11:35.915Z,21.40
2022-11-15T14:14:14.254Z,21.40
2022-11-15T14:16:51.797Z,21.40
2022-11-15T14:19:29.950Z,21.40
2022-11-15T14:22:19.001Z,21.40
2022-11-15T14:25:08.229Z,21.40
2022-11-15T14:27:38.544Z,21.40
2022-11-15T14:30:14.928Z,21.40
2022-11-15T14:32:51.865Z,21.40
2022-11-15T14:35:26.874Z,21.40
2022-11-15T14:37:59.862Z,21.40
2022-11-15T14:40:33.084Z,21.40
2022-11-15T14:43:03.289Z,21.40
2022-11-15T14:45:33.505Z,21.30
2022-11-15T14:48:06.661Z,21.40
2022-11-15T14:50:43.185Z,21.30
2022-11-15T14:53:20.690Z,21.30
2022-11-15T14:55:51.476Z,21.30
2022-11-15T14:58:22.848Z,21.30
2022-11-15T15:00:52.998Z,21.30
2022-11-15T15:03:22.994Z,21.40
2022-11-15T15:05:55.927Z,21.30
2022-11-15T15:08:26.568Z,21.30
2022-11-15T15:10:57.003Z,21.30
2022-11-15T15:13:33.552Z,21.30
2022-11-15T15:16:16.121Z,21.30
2022-11-15T15:18:47.378Z,21.30
2022-11-15T15:21:23.934Z,21.30
2022-11-15T15:23:56.212Z,21.30
2022-11-15T15:26:30.150Z,21.30
2022-11-15T15:29:03.509Z,21.30
2022-11-15T15:31:34.999Z,21.30
2022-11-15T15:34:16.679Z,21.30
2022-11-15T15:36:53.195Z,21.30
2022-11-15T15:39:29.259Z,21.20
2022-11-15T15:42:08.501Z,21.30
2022-11-15T15:44:44.674Z,21.20
2022-11-15T15:47:19.225Z,21.30
2022-11-15T15:49:49.937Z,21.30
2022-11-15T15:52:23.292Z,21.30
2022-11-15T15:54:53.478Z,21.20
2022-11-15T15:57:26.111Z,21.20
2022-11-15T15:59:56.161Z,21.20
2022-11-15T16:02:26.181Z,21.20
2022-11-15T16:04:59.022Z,21.20
2022-11-15T16:07:31.550Z,21.20
2022-11-15T16:10:04.901Z,21.20
2022-11-15T16:12:42.735Z,21.20
2022-11-15T16:15:12.995Z,21.20
2022-11-15T16:17:55.463Z,21.20
2022-11-15T16:20:45.298Z,21.20
2022-11-15T16:23:19.661Z,21.20
2022-11-15T16:25:57.104Z,21.20
2022-11-15T16:28:38.479Z,21.20
2022-11-15T16:31:14.801Z,21.20
2022-11-15T16:33:50.998Z,21.20
2022-11-15T16:36:30.234Z,21.20
2022-11-15T16:39:04.333Z,21.20
2022-11-15T16:41:34.779Z,21.20
2022-11-15T16:44:05.045Z,21.20
2022-11-15T16:46:35.102Z,21.20
2022-11-15T16:49:08.544Z,21.20
2022-11-15T16:51:41.531Z,21.10
2022-11-15T16:54:11.742Z,21.10
2022-11-15T16:56:42.154Z,21.20
2022-11-15T16:59:19.900Z,21.20
2022-11-15T17:01:51.861Z,21.10
2022-11-15T17:04:23.871Z,21.20
2022-11-15T17:06:57.059Z,21.10
2022-11-15T17:09:33.197Z,21.10
2022-11-15T17:12:06.687Z,21.10
2022-11-15T17:14:39.169Z,21.10
2022-11-15T17:17:11.536Z,21.10
2022-11-15T17:19:44.377Z,21.10
2022-11-15T17:22:14.495Z,21.10
2022-11-15T17:24:51.461Z,21.10
2022-11-15T17:27:22.965Z,21.10
2022-11-15T17:29:59.183Z,21.10
2022-11-15T17:32:31.806Z,21.10
2022-11-15T17:35:04.886Z,21.10
2022-11-15T17:37:41.489Z,21.10
2022-11-15T17:40:18.194Z,21.10
2022-11-15T17:42:50.742Z,21.10
2022-11-15T17:45:20.794Z,21.10
2022-11-15T17:47:50.814Z,21.10
2022-11-15T17:50:20.788Z,21.10
2022-11-15T17:52:53.158Z,21.00
2022-11-15T17:55:29.268Z,21.10
2022-11-15T17:58:04.465Z,21.10
2022-11-15T18:00:34.597Z,21.10
2022-11-15T18:03:07.120Z,21.00
2022-11-15T18:05:38.801Z,21.10
2022-11-15T18:08:15.584Z,21.00
2022-11-15T18:10:47.243Z,21.10
2022-11-15T18:13:20.581Z,21.00
2022-11-15T18:15:58.896Z,21.00
2022-11-15T18:18:28.925Z,21.00
2022-11-15T18:21:09.077Z,21.10
2022-11-15T18:23:51.158Z,21.00
2022-11-15T18:26:28.010Z,21.00
2022-11-15T18:29:12.186Z,21.00
2022-11-15T18:31:47.566Z,21.00
2022-11-15T18:34:18.800Z,21.00
2022-11-15T18:36:50.089Z,21.00
2022-11-15T18:39:23.269Z,21.00
2022-11-15T18:41:56.474Z,21.00
2022-11-15T18:44:26.966Z,21.00
2022-11-15T18:47:03.283Z,21.00
2022-11-15T18:49:36.348Z,21.00
2022-11-15T18:52:06.948Z,21.00
2022-11-15T18:54:39.778Z,21.00
2022-11-15T18:57:10.081Z,21.00
2022-11-15T18:59:42.675Z,21.00
2022-11-15T19:02:21.303Z,21.00
2022-11-15T19:04:54.466Z,21.00
2022-11-15T19:07:28.243Z,21.00
2022-11-15T19:10:00.116Z,21.00
2022-11-15T19:12:30.407Z,21.00
2022-11-15T19:15:00.649Z,21.00
2022-11-15T19:17:36.996Z,21.00
2022-11-15T19:20:09.860Z,21.00
2022-11-15T19:22:46.257Z,21.00
2022-11-15T19:25:16.390Z,21.00
2022-11-15T19:27:46.477Z,21.00
2022-11-15T19:30:19.929Z,21.00
2022-11-15T19:32:50.213Z,21.00
2022-11-15T19:35:20.192Z,21.00
2022-11-15T19:37:50.163Z,21.00
2022-11-15T19:40:20.137Z,21.00
2022-11-15T19:42:50.863Z,20.90
2022-11-15T19:45:21.230Z,21.00
2022-11-15T19:47:51.186Z,21.00
2022-11-15T19:50:26.958Z,21.00
2022-11-15T19:53:03.126Z,21.00
2022-11-15T19:55:36.152Z,21.00
2022-11-15T19:58:09.062Z,20.90
2022-11-15T20:00:39.896Z,21.00
2022-11-15T20:03:10.164Z,21.00
2022-11-15T20:05:40.163Z,20.90
2022-11-15T20:08:12.987Z,20.90
2022-11-15T20:10:47.598Z,20.90
2022-11-15T20:13:20.589Z,20.90
2022-11-15T20:15:50.829Z,20.90
2022-11-15T20:18:35.987Z,20.90
2022-11-15T20:21:09.996Z,20.90
2022-11-15T20:23:40.440Z,20.90
2022-11-15T20:26:12.428Z,20.90
2022-11-15T20:28:45.915Z,20.90
2022-11-15T20:31:18.402Z,20.90
2022-11-15T20:33:51.405Z,20.90
2022-11-15T20:36:24.657Z,20.90
2022-11-15T20:39:00.528Z,20.90
2022-11-15T20:41:30.454Z,20.90
2022-11-15T20:44:06.982Z,20.80
2022-11-15T20:46:43.320Z,20.90
2022-11-15T20:49:13.519Z,20.90
2022-11-15T20:51:49.515Z,20.90
2022-11-15T20:54:20.431Z,20.90
2022-11-15T20:56:50.649Z,20.90
2022-11-15T20:59:20.673Z,20.80
2022-11-15T21:01:52.554Z,20.90
2022-11-15T21:04:22.860Z,20.80
2022-11-15T21:06:56.202Z,20.80
2022-11-15T21:09:45.021Z,20.80
2022-11-15T21:12:18.818Z,20.80
2022-11-15T21:14:51.117Z,20.80
2022-11-15T21:17:24.147Z,20.80
2022-11-15T21:20:00.890Z,20.80
2022-11-15T21:22:37.300Z,20.80
2022-11-15T21:25:12.911Z,20.80
2022-11-15T21:27:48.848Z,20.80
2022-11-15T21:30:19.387Z,20.80
2022-11-15T21:32:52.436Z,20.80
2022-11-15T21:35:22.896Z,20.80
2022-11-15T21:37:56.765Z,20.80
2022-11-15T21:40:33.556Z,20.80
2022-11-15T21:43:08.329Z,20.80
2022-11-15T21:45:38.921Z,20.80
2022-11-15T21:48:14.843Z,20.80
2022-11-15T21:50:47.899Z,20.80
2022-11-15T21:53:21.011Z,20.80
2022-11-15T21:55:51.097Z,20.80
2022-11-15T21:58:24.868Z,20.80
2022-11-15T22:01:14.812Z,20.80
2022-11-15T22:03:54.123Z,20.80
2022-11-15T22:06:25.613Z,20.80
2022-11-15T22:09:07.981Z,20.70
2022-11-15T22:11:41.073Z,20.70
2022-11-15T22:14:17.714Z,20.80
2022-11-15T22:16:50.202Z,20.80
2022-11-15T22:19:23.349Z,20.80
2022-11-15T22:21:56.943Z,20.70
2022-11-15T22:24:27.407Z,20.70
2022-11-15T22:27:00.259Z,20.70
2022-11-15T22:29:30.931Z,20.70
2022-11-15T22:32:01.509Z,20.70
2022-11-15T22:34:34.176Z,20.70
2022-11-15T22:37:19.916Z,20.70
2022-11-15T22:39:54.065Z,20.70
2022-11-15T22:42:30.139Z,20.80
2022-11-15T22:45:00.581Z,20.70
2022-11-15T22:47:32.477Z,20.70
2022-11-15T22:50:02.836Z,20.70
2022-11-15T22:52:38.961Z,20.70
2022-11-15T22:55:12.661Z,20.70
2022-11-15T22:57:46.782Z,20.70
2022-11-15T23:00:20.769Z,20.70
2022-11-15T23:02:56.911Z,20.70
2022-11-15T23:05:33.298Z,20.70
2022-11-15T23:08:12.780Z,20.70
2022-11-15T23:11:03.514Z,20.70
2022-11-15T23:13:43.273Z,20.70
2022-11-15T23:16:37.902Z,20.70
2022-11-15T23:19:15.312Z,20.70
2022-11-15T23:22:04.750Z,20.70
2022-11-15T23:24:47.631Z,20.70
2022-11-15T23:27:21.247Z,20.60
2022-11-15T23:30:09.321Z,20.70
2022-11-15T23:33:01.778Z,20.60
2022-11-15T23:35:41.173Z,20.60
2022-11-15T23:38:26.298Z,20.70
2022-11-15T23:40:59.983Z,20.60
2022-11-15T23:43:31.127Z,20.60
2022-11-15T23:46:10.163Z,20.60
2022-11-15T23:48:43.445Z,20.60
2022-11-15T23:51:13.726Z,20.70
2022-11-15T23:53:44.150Z,20.60
2022-11-15T23:56:18.052Z,20.60
2022-11-15T23:58:48.446Z,20.60
